Airport Name : Humberside

Other Name : Humberside

ICAO : EGNJ

IATA : HUY

FAA :

Latitude : 53.574444

Longitude : -0.350833

Country : United Kingdom

Local Date and Time : 01 Mar 2021 19:33

 

TAF (Terminal Aerodrome Forecast)

TAF AMD EGNJ 011923Z 0119/0203 08008KT 6000 BKN005 TEMPO 0119/0203 2000 BR BKN001 PROB30 TEMPO 0121/0203 0300 FG

 

METAR (METeorological Aerodrome Report)

EGNJ 011920Z AUTO 06005KT 2000 BR OVC000/// 04/03 Q1033

EGNJ 011850Z AUTO 07005KT 7000 OVC001/// 03/03 Q1033

EGNJ 011820Z AUTO 08006KT 9999 OVC003/// 04/03 Q1033

EGNJ 011750Z 08007KT 8000 BKN007 04/03 Q1033

EGNJ 011720Z 10007KT 8000 BKN007 04/04 Q1033

EGNJ 011650Z 11006KT 8000 BKN007 04/04 Q1033

EGNJ 011620Z 09008KT 8000 BKN006 04/04 Q1033

EGNJ 011550Z 08007KT 050V110 8000 BKN006 04/04 Q1033

To Charter a Jet Click here.